Adamsburg, PA

6:29 AM EDT on October 02, 2014 (GMT -0400)
Sheridan Terrace | Change Station
CLOSE
Current Station
Personal Weather Station
Location: N. Huntingdon, PA
Elevation: 1017 ft
Nearby Weather Stations

Elev 1017 ft 40.34 °N, 79.70 °W | Updated 13 seconds ago

Overcast
Overcast
48.6 °F
Feels Like 49 °F
N
0.0
Wind Variable Wind from North
Gusts 0.0 mph

Today
High -- | Low -- °F
--% Chance of Precip.
Yesterday
High -- | Low -- °F
Precip. -- in
7:15 AM 6:59 PM
First Quarter, 57% visible
Pressure 30.10 in
Visibility 4.0 miles
Clouds Mostly Cloudy 3200 ft
Mostly Cloudy 4000 ft
Windchill 49 °F
Dew Point 49 °F
Humidity 100%
Rainfall 0.00 in
Snow Depth Not available.
UV 0 out of 12
Pollen 2.00 out of 12
Air Quality Not available.
Flu Activity Not available.
METAR KLBE 020955Z AUTO 00000KT 4SM BR BKN032 BKN040 11/11 A3010 RMK A02 P000

More Conditions Fewer Conditions

Pressure 30.10 in
Visibility 4.0 miles
Clouds Mostly Cloudy 3200 ft
Mostly Cloudy 4000 ft
Windchill 49 °F
Dew Point 49 °F
Humidity 100%
Rainfall 0.00 in
Snow Depth Not available.
UV 0 out of 12
Pollen 2.00 out of 12
Air Quality Not available.
Flu Activity Not available.
METAR KLBE 020955Z AUTO 00000KT 4SM BR BKN032 BKN040 11/11 A3010 RMK A02 P000

More Conditions Fewer Conditions

10-Day Weather Forecast

Almanac

Astronomy

Oct. 02, 2014 Rise Set
Actual Time 7:15 AM EDT 6:59 PM EDT
Civil Twilight 6:48 AM EDT 7:26 PM EDT
Nautical Twilight 6:17 AM EDT 7:57 PM EDT
Astronomical Twilight 5:45 AM EDT 8:29 PM EDT
Moon 3:04 PM EDT 12:30 AM EDT
Length of Visible Light 12h 37m
Length of Day
11h 43m
Tomorrow will be 2m 38s shorter.
First Quarter, 57% of the Moon is Illuminated
Today
First Quarter
Oct 8
Full
Oct 15
Last Quarter
Oct 23
New
Oct 30
First Quarter

Today's Extremes

State Highs State Lows

Community

WunderPhotos

Upload Photos

1,758,209 photos uploaded!

WunderBlogs® & News

Nearby

Snow Depth

Station Depth Elevation
No new snow has been reported.

Earthquake Activity

City Distance Mag. Time & Date
No recent earthquake activity has been reported nearby.
Minimum magnitude displayed is 2.5.

Coastal Water Temperatures

Place Temperature
No Stations Reporting

Nearby Weather Stations